Time;durP1;ratioP1;P1;durP2;ratioP2;P2;SDS_P1;SDS_P2;PMS_P1;PMS_P2;Temp;Humidity;BMP_temperature;BMP_pressure;BME280_temperature;BME280_humidity;BME280_pressure;Samples;Min_cycle;Max_cycle;Signal;HPM_P1;HPM_P2
2021/10/29 00:01:51;;;;;;;11.13;9.82;;;;;;;26.90;18.07;95214.13;5035025;28;20044;-52
2021/10/29 00:04:18;;;;;;;12.20;10.38;;;;;;;26.97;17.84;95220.31;5035409;28;20076;-53
2021/10/29 00:06:45;;;;;;;11.48;10.27;;;;;;;26.99;17.91;95218.06;5035665;28;20337;-52
2021/10/29 00:09:12;;;;;;;13.05;10.48;;;;;;;26.56;18.36;95211.53;5035028;28;20041;-52
2021/10/29 00:11:40;;;;;;;12.40;11.00;;;;;;;26.66;17.93;95202.78;5034763;28;20053;-48
2021/10/29 00:14:07;;;;;;;11.25;10.02;;;;;;;26.91;17.82;95205.72;5035382;28;20053;-54
2021/10/29 00:16:34;;;;;;;11.82;10.15;;;;;;;27.01;17.67;95197.00;5034950;28;20075;-55
2021/10/29 00:19:01;;;;;;;10.95;9.82;;;;;;;26.99;17.67;95193.91;5034653;28;20045;-49
2021/10/29 00:21:29;;;;;;;11.93;9.32;;;;;;;26.98;17.81;95195.03;5034072;28;20061;-48
2021/10/29 00:23:56;;;;;;;11.18;9.98;;;;;;;26.81;18.12;95198.34;5034812;28;20438;-51
2021/10/29 00:26:24;;;;;;;11.88;9.65;;;;;;;26.80;18.09;95204.06;5034723;28;20067;-53
2021/10/29 00:28:51;;;;;;;12.52;10.45;;;;;;;26.78;17.79;95200.97;5049575;28;20372;-53
2021/10/29 00:31:18;;;;;;;11.88;10.00;;;;;;;26.85;18.13;95201.84;5034409;28;20466;-47
2021/10/29 00:33:45;;;;;;;11.93;10.68;;;;;;;26.91;17.91;95200.34;5034471;28;20060;-55
2021/10/29 00:36:12;;;;;;;12.23;10.88;;;;;;;26.69;17.90;95195.91;5034431;28;20054;-53
2021/10/29 00:38:39;;;;;;;11.18;9.52;;;;;;;26.81;17.83;95203.72;5034210;28;20471;-51
2021/10/29 00:41:06;;;;;;;11.30;9.68;;;;;;;26.71;17.96;95196.31;5034333;28;20080;-50
2021/10/29 00:43:33;;;;;;;10.35;8.93;;;;;;;26.73;17.98;95204.78;5034179;28;20049;-50
2021/10/29 00:46:00;;;;;;;10.18;9.10;;;;;;;26.53;18.03;95198.81;5034707;28;20045;-52
2021/10/29 00:48:27;;;;;;;11.13;9.50;;;;;;;26.49;18.06;95197.25;5034024;28;20372;-48
2021/10/29 00:50:55;;;;;;;11.07;9.50;;;;;;;26.40;18.04;95192.19;5016325;28;20068;-49
2021/10/29 00:53:23;;;;;;;11.55;9.63;;;;;;;26.25;18.02;95180.50;5033719;28;20262;-47
2021/10/29 00:55:50;;;;;;;11.68;9.93;;;;;;;26.58;17.78;95187.78;5049589;28;20128;-48
2021/10/29 00:58:17;;;;;;;12.30;10.73;;;;;;;26.53;17.94;95176.59;5049444;28;20044;-47
2021/10/29 01:00:44;;;;;;;12.05;10.82;;;;;;;26.34;17.85;95177.59;5034031;28;20052;-51
2021/10/29 01:03:11;;;;;;;12.40;11.10;;;;;;;26.18;18.25;95175.06;5033831;28;20045;-48
2021/10/29 01:05:39;;;;;;;12.25;10.93;;;;;;;26.20;17.92;95178.16;5034170;28;20041;-48
2021/10/29 01:08:07;;;;;;;12.60;11.30;;;;;;;26.28;17.94;95173.63;5033604;28;20060;-49
2021/10/29 01:10:34;;;;;;;13.30;11.38;;;;;;;26.05;17.98;95163.06;5033747;28;20042;-48
2021/10/29 01:13:01;;;;;;;13.13;11.30;;;;;;;26.07;18.12;95169.59;5033716;28;20052;-50
2021/10/29 01:15:28;;;;;;;12.50;10.57;;;;;;;26.37;18.07;95161.53;5033767;28;20049;-49
2021/10/29 01:17:55;;;;;;;11.57;10.38;;;;;;;26.28;17.87;95144.94;5033789;28;20053;-49
2021/10/29 01:20:23;;;;;;;12.25;9.77;;;;;;;26.05;18.23;95157.72;5033753;28;20061;-53
2021/10/29 01:22:51;;;;;;;11.82;10.20;;;;;;;26.14;18.19;95155.50;5033173;28;20268;-55
2021/10/29 01:25:19;;;;;;;10.95;9.85;;;;;;;26.07;18.01;95155.44;5032822;28;20448;-54
2021/10/29 01:27:46;;;;;;;14.95;9.98;;;;;;;26.15;18.07;95159.72;5033563;28;20439;-51
2021/10/29 01:30:14;;;;;;;10.90;9.45;;;;;;;26.18;18.05;95156.31;5033188;28;20371;-52
2021/10/29 01:32:41;;;;;;;11.60;9.82;;;;;;;26.13;18.03;95157.41;5033571;28;20061;-50
2021/10/29 01:35:10;;;;;;;12.38;10.40;;;;;;;26.11;18.37;95153.56;5033114;28;20049;-52
2021/10/29 01:37:38;;;;;;;12.55;9.82;;;;;;;26.21;18.10;95150.22;5033768;28;20068;-49
2021/10/29 01:40:07;;;;;;;12.55;9.90;;;;;;;26.41;18.08;95151.63;5033330;28;20442;-55
2021/10/29 01:42:35;;;;;;;12.18;9.95;;;;;;;26.52;18.07;95150.94;5033316;28;20072;-51
2021/10/29 01:45:04;;;;;;;11.15;9.95;;;;;;;26.49;18.16;95162.41;5033688;28;20046;-57
2021/10/29 01:47:31;;;;;;;10.80;9.63;;;;;;;26.49;17.84;95159.72;5033718;28;20057;-52
2021/10/29 01:49:58;;;;;;;12.27;10.02;;;;;;;26.41;17.97;95154.28;5016299;28;20041;-52
2021/10/29 01:52:25;;;;;;;12.52;9.85;;;;;;;26.62;18.06;95158.31;5024701;28;20057;-54
2021/10/29 01:54:52;;;;;;;11.68;10.48;;;;;;;26.75;17.98;95159.56;5033525;28;20045;-52
2021/10/29 01:57:19;;;;;;;10.63;9.50;;;;;;;26.58;17.87;95155.63;5033585;28;20060;-54
2021/10/29 01:59:46;;;;;;;10.68;9.68;;;;;;;26.41;18.07;95162.34;5033164;28;20049;-57
2021/10/29 02:02:14;;;;;;;11.10;8.80;;;;;;;26.41;18.20;95175.75;5033502;28;20371;-56
2021/10/29 02:04:41;;;;;;;10.52;9.48;;;;;;;26.56;18.10;95165.94;5033638;28;20060;-53
2021/10/29 02:07:09;;;;;;;10.65;9.55;;;;;;;26.47;18.16;95170.03;5033244;28;20068;-54
2021/10/29 02:09:36;;;;;;;10.57;9.48;;;;;;;26.64;17.77;95164.09;5033455;28;20045;-54
2021/10/29 02:12:04;;;;;;;11.57;9.80;;;;;;;26.65;17.90;95168.31;5033388;28;20050;-53
2021/10/29 02:14:31;;;;;;;11.43;9.98;;;;;;;26.60;17.73;95165.97;5029109;28;20054;-48
2021/10/29 02:16:58;;;;;;;14.48;9.65;;;;;;;26.70;17.87;95163.38;5013739;28;20057;-53
2021/10/29 02:19:25;;;;;;;10.48;9.38;;;;;;;26.46;18.13;95163.91;5022670;28;20057;-62
2021/10/29 02:21:53;;;;;;;11.02;9.65;;;;;;;26.42;17.97;95163.88;5024476;28;20065;-49
2021/10/29 02:24:20;;;;;;;10.82;9.70;;;;;;;26.57;17.96;95153.31;5036892;28;20045;-50
2021/10/29 02:26:47;;;;;;;11.75;10.10;;;;;;;26.66;18.11;95151.06;5035664;28;20042;-49
2021/10/29 02:29:14;;;;;;;14.30;9.57;;;;;;;26.58;18.03;95155.63;5035858;28;20053;-50
2021/10/29 02:31:41;;;;;;;10.82;9.63;;;;;;;26.77;17.78;95151.94;5036819;28;20063;-52
2021/10/29 02:34:08;;;;;;;10.45;9.35;;;;;;;26.58;18.12;95154.84;5036921;28;20049;-50
2021/10/29 02:36:35;;;;;;;10.68;9.57;;;;;;;26.77;17.84;95146.56;5036651;28;20046;-55
2021/10/29 02:39:03;;;;;;;12.77;9.63;;;;;;;26.41;18.19;95146.25;5036220;28;20057;-59
2021/10/29 02:41:30;;;;;;;10.43;9.32;;;;;;;26.80;17.92;95145.81;5037045;28;20045;-59
2021/10/29 02:43:57;;;;;;;11.23;9.55;;;;;;;26.72;17.77;95144.22;5037231;28;20436;-57
2021/10/29 02:46:26;;;;;;;10.57;9.48;;;;;;;26.90;17.85;95137.09;5037059;28;20045;-52
2021/10/29 02:48:53;;;;;;;10.93;9.55;;;;;;;26.49;17.97;95139.03;5036685;28;20037;-49
2021/10/29 02:51:21;;;;;;;10.73;9.63;;;;;;;26.39;18.19;95143.16;5035798;28;20053;-51
2021/10/29 02:53:48;;;;;;;12.95;10.82;;;;;;;26.62;18.01;95134.97;5017446;28;20065;-48
2021/10/29 02:56:15;;;;;;;11.07;9.77;;;;;;;26.47;17.96;95151.28;5016686;28;20049;-49
2021/10/29 02:58:42;;;;;;;11.57;9.98;;;;;;;26.37;18.18;95150.81;5021576;28;20048;-57
2021/10/29 03:01:09;;;;;;;11.65;10.00;;;;;;;26.42;17.85;95157.75;5017798;28;20050;-53
2021/10/29 03:03:36;;;;;;;12.35;10.48;;;;;;;26.33;17.93;95151.88;5016620;28;20437;-53
2021/10/29 03:06:04;;;;;;;12.43;10.70;;;;;;;26.18;18.38;95159.00;5016474;28;20054;-53
2021/10/29 03:08:31;;;;;;;11.63;10.43;;;;;;;26.27;18.23;95159.47;5035437;28;20135;-53
2021/10/29 03:10:58;;;;;;;11.90;10.13;;;;;;;26.57;17.88;95164.03;5032635;28;20566;-53
2021/10/29 03:13:26;;;;;;;11.98;10.68;;;;;;;26.47;17.76;95175.41;5016202;28;20058;-53
2021/10/29 03:15:53;;;;;;;12.75;10.98;;;;;;;26.51;18.03;95162.81;5016231;28;20452;-52
2021/10/29 03:18:21;;;;;;;11.80;10.60;;;;;;;26.10;18.15;95162.75;5017120;28;20056;-53
2021/10/29 03:20:49;;;;;;;11.45;10.25;;;;;;;26.48;18.18;95160.84;5036069;28;20053;-53
2021/10/29 03:23:18;;;;;;;12.25;10.40;;;;;;;26.52;18.00;95169.69;5035438;28;20447;-55
2021/10/29 03:25:45;;;;;;;11.25;10.07;;;;;;;26.56;17.82;95160.56;5035925;28;20041;-53
2021/10/29 03:28:13;;;;;;;11.02;9.45;;;;;;;26.47;18.02;95165.44;5035848;28;20046;-51
2021/10/29 03:30:40;;;;;;;11.52;10.27;;;;;;;26.53;18.03;95163.19;5036623;28;20056;-51
2021/10/29 03:33:08;;;;;;;11.00;9.93;;;;;;;26.49;17.91;95162.41;5035886;28;20064;-53
2021/10/29 03:35:36;;;;;;;10.98;9.88;;;;;;;26.76;17.72;95161.13;5034494;28;20045;-57
2021/10/29 03:40:55;;;;;;;11.50;9.68;;;;;;;26.67;18.02;95168.72;5035202;28;20045;-53
2021/10/29 03:43:29;;;;;;;11.48;10.27;;;;;;;26.37;18.07;95160.75;5035711;28;20061;-53
2021/10/29 03:46:12;;;;;;;11.45;9.68;;;;;;;26.37;18.13;95156.16;5035946;28;20041;-59
2021/10/29 03:51:43;;;;;;;9.77;8.82;;;;;;;26.59;17.83;95153.72;5001955;28;20045;-55
2021/10/29 03:54:17;;;;;;;12.30;10.95;;;;;;;26.42;18.12;95166.56;5035684;28;20045;-47
2021/10/29 03:56:58;;;;;;;11.52;10.30;;;;;;;26.42;18.01;95155.84;5034173;28;20046;-47
2021/10/29 03:59:25;;;;;;;11.73;9.82;;;;;;;26.36;18.11;95154.63;5034645;28;20060;-47
2021/10/29 04:01:52;;;;;;;13.68;10.40;;;;;;;26.40;18.10;95160.78;5035175;28;20053;-49
2021/10/29 04:04:19;;;;;;;11.48;10.20;;;;;;;26.40;17.75;95160.78;5035421;28;20052;-49
2021/10/29 04:06:47;;;;;;;14.88;10.13;;;;;;;26.53;17.74;95166.66;5036519;28;20048;-50
2021/10/29 04:09:15;;;;;;;12.98;10.63;;;;;;;26.30;17.74;95161.44;5035834;28;20440;-53
2021/10/29 04:11:42;;;;;;;15.18;11.32;;;;;;;26.32;17.72;95164.53;5034992;28;20045;-55
2021/10/29 04:14:11;;;;;;;14.50;12.15;;;;;;;26.32;17.91;95159.16;5023594;28;20053;-55
2021/10/29 04:16:40;;;;;;;13.63;12.23;;;;;;;26.14;18.07;95158.19;5015154;28;20050;-59
2021/10/29 04:19:08;;;;;;;14.30;11.82;;;;;;;26.05;17.95;95155.03;5020663;28;20057;-52
2021/10/29 04:21:37;;;;;;;16.08;12.02;;;;;;;25.83;18.20;95158.59;5034306;28;20065;-51
2021/10/29 04:24:05;;;;;;;15.48;12.57;;;;;;;26.04;18.07;95153.50;5019805;28;20057;-51
2021/10/29 04:26:34;;;;;;;14.30;12.50;;;;;;;26.22;17.74;95153.66;5015144;28;20037;-50
2021/10/29 04:29:02;;;;;;;16.85;12.75;;;;;;;25.97;18.11;95148.81;5019524;28;20049;-50
2021/10/29 04:31:31;;;;;;;15.48;12.90;;;;;;;25.92;18.09;95153.72;5034299;28;20061;-52
2021/10/29 04:33:58;;;;;;;16.05;11.93;;;;;;;26.93;17.91;95144.41;5020820;28;20679;-52
2021/10/29 04:36:25;;;;;;;16.15;11.50;;;;;;;28.14;17.20;95139.75;5014401;28;20445;-59
2021/10/29 04:38:52;;;;;;;11.80;10.60;;;;;;;29.01;17.00;95146.81;5016227;28;20057;-53
2021/10/29 04:41:19;;;;;;;14.32;10.02;;;;;;;29.54;16.64;95146.00;5022323;28;20042;-51
2021/10/29 04:43:46;;;;;;;13.90;10.35;;;;;;;29.77;16.86;95144.38;5015678;28;20387;-53
2021/10/29 04:46:13;;;;;;;11.45;10.25;;;;;;;30.13;16.37;95143.50;5033345;28;20053;-50
2021/10/29 04:48:41;;;;;;;12.80;9.88;;;;;;;30.57;16.31;95145.56;5031612;28;20376;-69
2021/10/29 04:51:08;;;;;;;11.90;10.63;;;;;;;30.93;16.44;95149.56;5033445;28;20076;-54
2021/10/29 04:53:35;;;;;;;10.48;9.35;;;;;;;31.03;16.21;95137.16;5034158;28;20045;-60
2021/10/29 04:56:03;;;;;;;11.88;9.45;;;;;;;31.32;15.94;95150.41;5033794;28;20050;-52
2021/10/29 04:58:31;;;;;;;9.68;8.68;;;;;;;32.67;14.96;95143.41;5028773;28;20053;-56
2021/10/29 05:00:58;;;;;;;13.60;11.05;;;;;;;30.40;15.09;95141.81;5014749;28;20361;-52
2021/10/29 05:03:25;;;;;;;13.77;10.43;;;;;;;28.66;16.14;95145.63;5013646;28;20062;-54
2021/10/29 05:05:52;;;;;;;14.68;11.65;;;;;;;28.11;16.31;95148.56;5020466;28;20356;-52
2021/10/29 05:08:19;;;;;;;16.23;12.00;;;;;;;27.33;16.97;95150.88;5014574;28;20408;-57
2021/10/29 05:10:46;;;;;;;14.45;11.75;;;;;;;26.99;16.85;95156.34;5026594;28;20045;-51
2021/10/29 05:13:13;;;;;;;15.85;12.55;;;;;;;27.34;17.38;95158.53;5014187;28;20440;-60
2021/10/29 05:15:41;;;;;;;13.80;11.43;;;;;;;28.71;16.34;95157.94;5014354;28;20061;-51
2021/10/29 05:18:15;;;;;;;17.08;12.43;;;;;;;27.18;16.81;95157.25;5014547;28;20050;-53
2021/10/29 05:20:43;;;;;;;16.60;12.88;;;;;;;26.96;17.15;95159.00;5030397;28;20056;-58
2021/10/29 05:23:11;;;;;;;15.35;13.45;;;;;;;26.90;17.10;95163.94;5033545;28;20112;-52
2021/10/29 05:25:38;;;;;;;16.67;13.70;;;;;;;26.97;17.44;95165.91;5029315;28;20065;-52
2021/10/29 05:28:05;;;;;;;17.50;15.35;;;;;;;26.65;17.29;95171.00;5014263;28;20472;-57
2021/10/29 05:30:32;;;;;;;22.25;17.75;;;;;;;26.50;17.42;95175.44;5029240;28;20061;-50
2021/10/29 05:33:00;;;;;;;19.00;16.38;;;;;;;26.30;17.54;95171.38;5026137;28;20050;-53
2021/10/29 05:35:27;;;;;;;25.77;21.23;;;;;;;26.94;17.52;95172.78;5014417;28;20368;-51
2021/10/29 05:37:54;;;;;;;30.83;25.75;;;;;;;26.46;17.63;95173.84;5013853;28;20046;-56
2021/10/29 05:40:22;;;;;;;31.17;26.10;;;;;;;26.53;17.68;95179.28;5027201;28;20045;-52
2021/10/29 05:42:49;;;;;;;32.20;22.38;;;;;;;25.64;18.57;95184.34;5031245;28;20441;-55
2021/10/29 05:45:17;;;;;;;27.88;21.00;;;;;;;26.01;18.10;95183.66;5013933;28;20054;-53
2021/10/29 05:47:44;;;;;;;26.42;18.83;;;;;;;25.83;18.32;95185.38;5013620;28;20377;-53
2021/10/29 05:50:12;;;;;;;22.83;18.25;;;;;;;25.76;18.54;95188.72;5038369;28;20053;-54
2021/10/29 05:52:42;;;;;;;25.35;20.83;;;;;;;26.16;18.31;95188.06;5032525;28;20041;-52
2021/10/29 05:55:14;;;;;;;24.15;21.45;;;;;;;26.78;18.36;95190.25;5036294;28;20064;-59
2021/10/29 05:57:43;;;;;;;23.38;20.60;;;;;;;26.84;18.54;95184.19;5037502;28;20329;-53
2021/10/29 06:00:11;;;;;;;24.70;19.15;;;;;;;27.07;18.35;95194.00;5036812;28;20060;-55
2021/10/29 06:02:42;;;;;;;20.45;17.13;;;;;;;26.79;18.60;95192.56;5037957;28;20053;-53
2021/10/29 06:05:10;;;;;;;21.73;16.77;;;;;;;28.16;17.87;95193.13;5032323;28;20065;-52
2021/10/29 06:07:37;;;;;;;20.23;15.63;;;;;;;29.31;16.59;95190.25;5031627;28;20399;-53
2021/10/29 06:10:07;;;;;;;28.20;17.90;;;;;;;28.21;17.17;95190.06;5036773;28;20041;-52
2021/10/29 06:12:38;;;;;;;23.17;18.60;;;;;;;27.73;17.86;95184.09;5038079;28;20052;-53
2021/10/29 06:15:06;;;;;;;;;;;;;;;27.62;17.98;95195.56;5028906;28;20057;-56
2021/10/29 06:17:41;;;;;;;21.38;17.23;;;;;;;27.79;17.89;95194.09;5017715;28;19921;-51
2021/10/29 06:20:10;;;;;;;19.55;16.38;;;;;;;27.98;17.36;95193.03;5027455;28;20061;-52
2021/10/29 06:22:45;;;;;;;22.05;16.15;;;;;;;28.65;16.92;95195.22;5036568;28;20057;-52
2021/10/29 06:25:20;;;;;;;17.52;14.23;;;;;;;28.34;17.37;95201.25;5036976;28;20049;-52
2021/10/29 06:30:40;;;;;;;36.65;18.55;;;;;;;28.67;16.94;95197.50;5036107;28;20052;-52
2021/10/29 06:33:12;;;;;;;29.52;19.05;;;;;;;29.07;16.52;95199.09;5036763;28;20053;-53
2021/10/29 06:35:41;;;;;;;26.08;19.48;;;;;;;28.74;16.77;95203.66;5037017;28;20411;-53
2021/10/29 06:38:11;;;;;;;21.58;16.70;;;;;;;28.96;16.57;95199.09;5036482;28;20379;-52
2021/10/29 06:40:43;;;;;;;23.27;17.23;;;;;;;29.25;16.56;95199.88;5035840;28;20045;-51
2021/10/29 06:43:40;;;;;;;22.13;15.43;;;;;;;29.52;15.87;95204.88;5024947;28;20122;-53
2021/10/29 06:59:40;;;;;;;57.40;43.72;;;;;;;30.00;15.37;95208.59;5035812;28;20418;-52
2021/10/29 07:40:18;;;;;;;25.00;22.42;;;;;;;32.57;13.72;95193.06;5023334;28;20049;-53
2021/10/29 07:45:18;;;;;;;23.73;18.67;;;;;;;31.73;14.97;95191.69;5035541;28;20060;-52
2021/10/29 07:47:46;;;;;;;22.23;17.80;;;;;;;31.30;15.12;95196.72;5035233;28;20359;-53
2021/10/29 07:50:15;;;;;;;20.58;18.13;;;;;;;30.85;15.47;95195.91;5035184;28;20068;-54
2021/10/29 07:52:43;;;;;;;21.40;19.17;;;;;;;30.66;15.80;95197.94;5035102;28;20045;-55
2021/10/29 07:55:12;;;;;;;21.45;18.40;;;;;;;30.66;16.16;95197.94;5035301;28;20052;-52
2021/10/29 07:57:41;;;;;;;21.27;19.00;;;;;;;30.60;15.89;95188.72;5033307;28;20060;-54
2021/10/29 08:00:09;;;;;;;25.02;18.95;;;;;;;30.66;15.69;95184.44;5034168;28;20057;-53
2021/10/29 08:02:38;;;;;;;20.70;18.48;;;;;;;30.82;15.60;95192.06;5035222;28;20045;-51
2021/10/29 08:05:05;;;;;;;24.67;19.10;;;;;;;30.50;15.86;95194.16;5033037;28;20053;-53
2021/10/29 08:07:33;;;;;;;22.60;20.15;;;;;;;30.71;15.54;95190.56;5015915;28;20048;-53
2021/10/29 08:10:02;;;;;;;26.85;19.88;;;;;;;30.49;16.06;95190.69;5032858;28;20364;-53
2021/10/29 08:12:32;;;;;;;22.83;19.95;;;;;;;30.56;15.79;95184.50;5035139;28;20451;-52
2021/10/29 08:15:03;;;;;;;27.33;19.58;;;;;;;30.72;15.61;95181.34;5035272;28;20466;-52
2021/10/29 08:17:34;;;;;;;21.70;19.50;;;;;;;30.78;15.75;95177.06;5034088;28;20053;-52
2021/10/29 08:20:04;;;;;;;20.83;18.73;;;;;;;30.70;15.80;95181.72;5034341;28;20353;-52
2021/10/29 08:22:32;;;;;;;21.75;19.00;;;;;;;31.15;15.72;95169.03;5034365;28;20053;-51
2021/10/29 08:25:00;;;;;;;20.45;18.45;;;;;;;31.22;15.42;95174.41;5015091;28;20073;-52
2021/10/29 08:27:27;;;;;;;22.00;18.15;;;;;;;31.31;15.39;95168.56;5014909;28;20053;-52
2021/10/29 08:29:55;;;;;;;21.95;18.13;;;;;;;31.24;15.39;95166.69;5030734;28;20062;-56
2021/10/29 08:32:23;;;;;;;20.33;17.30;;;;;;;31.54;15.47;95170.66;5034676;28;20511;-54
2021/10/29 08:34:50;;;;;;;19.88;16.83;;;;;;;31.41;15.13;95172.31;5033714;28;20475;-52
2021/10/29 08:37:17;;;;;;;17.35;15.57;;;;;;;31.81;15.18;95165.38;5034373;28;20570;-52
2021/10/29 08:39:44;;;;;;;17.25;15.45;;;;;;;31.84;15.04;95165.34;5028586;28;20061;-52
2021/10/29 08:42:11;;;;;;;18.85;13.93;;;;;;;32.11;14.63;95157.28;5034473;28;20057;-53
2021/10/29 08:44:38;;;;;;;16.58;14.77;;;;;;;32.26;14.84;95168.69;5034202;28;20048;-53
2021/10/29 08:47:06;;;;;;;14.18;12.73;;;;;;;34.09;14.01;95162.63;5014661;28;20471;-54
2021/10/29 08:49:34;;;;;;;14.48;13.10;;;;;;;35.37;13.25;95161.72;5014511;28;20356;-55
2021/10/29 08:52:04;;;;;;;13.52;11.82;;;;;;;34.20;13.53;95163.19;5024005;28;20045;-52
2021/10/29 08:54:31;;;;;;;15.60;11.70;;;;;;;33.03;13.88;95173.41;5033914;28;20480;-53
2021/10/29 08:57:00;;;;;;;8.65;7.05;;;;;;;33.07;13.44;95158.66;5014488;28;20050;-54
2021/10/29 08:59:32;;;;;;;9.95;7.45;;;;;;;32.71;13.31;95163.06;5018402;28;20054;-54
2021/10/29 09:02:22;;;;;;;7.90;6.93;;;;;;;33.03;13.38;95155.22;5033458;28;20049;-53
2021/10/29 09:32:29;;;;;;;8.00;6.55;;;;;;;32.75;13.75;95128.56;5033914;28;20050;-53
2021/10/29 09:34:58;;;;;;;7.35;6.65;;;;;;;32.73;13.62;95130.94;5033728;28;20053;-53
2021/10/29 09:37:34;;;;;;;8.88;6.93;;;;;;;32.56;13.72;95126.56;5033251;28;20045;-52
2021/10/29 09:40:11;;;;;;;8.30;6.60;;;;;;;33.31;13.30;95123.41;5032369;28;20057;-53
2021/10/29 09:42:40;;;;;;;8.63;7.25;;;;;;;33.07;13.15;95120.75;5033753;28;20057;-53
2021/10/29 09:45:36;;;;;;;7.63;6.93;;;;;;;34.40;12.63;95124.44;5033252;28;20045;-53
2021/10/29 09:48:21;;;;;;;7.50;6.68;;;;;;;33.62;12.80;95124.81;5021171;28;20049;-53
2021/10/29 09:50:57;;;;;;;7.80;6.28;;;;;;;32.98;13.21;95120.50;5034080;28;20645;-53
2021/10/29 09:54:18;;;;;;;13.35;11.90;;;;;;;33.95;12.57;95125.72;5013633;28;20088;-52
2021/10/29 09:58:49;;;;;;;12.40;9.77;;;;;;;32.94;13.63;95103.56;5014152;28;20062;-54
2021/10/29 10:01:16;;;;;;;11.27;10.13;;;;;;;33.33;12.95;95096.72;5024889;28;20359;-52
2021/10/29 10:03:44;;;;;;;6.60;6.00;;;;;;;33.15;12.17;95107.06;5033545;28;20061;-52
2021/10/29 10:06:14;;;;;;;9.35;5.80;;;;;;;33.19;12.57;95095.00;5033132;28;20045;-52
2021/10/29 10:08:41;;;;;;;7.22;5.10;;;;;;;32.85;11.97;95095.19;5033612;28;20045;-52
2021/10/29 10:11:11;;;;;;;9.70;5.30;;;;;;;32.96;11.84;95074.13;5048356;28;20060;-52
2021/10/29 10:13:42;;;;;;;5.53;4.57;;;;;;;33.00;11.43;95093.78;5033490;28;20045;-52
2021/10/29 10:16:11;;;;;;;5.72;4.93;;;;;;;32.61;12.27;95085.50;5032142;28;20364;-52
2021/10/29 10:18:40;;;;;;;6.97;5.00;;;;;;;32.58;12.52;95075.50;5048635;28;20065;-52
2021/10/29 10:21:12;;;;;;;7.05;4.88;;;;;;;32.68;12.55;95074.56;5032592;28;20179;-51
2021/10/29 10:23:45;;;;;;;8.13;4.28;;;;;;;32.74;11.93;95078.31;5032559;28;20072;-55
2021/10/29 10:26:22;;;;;;;7.50;4.40;;;;;;;32.67;11.04;95078.44;5033134;28;20049;-53
2021/10/29 10:45:42;;;;;;;5.20;4.50;;;;;;;32.65;11.71;95064.56;5036803;28;20041;-53
2021/10/29 10:48:12;;;;;;;7.07;5.60;;;;;;;33.55;11.18;95070.72;5029109;28;20045;-55
2021/10/29 10:50:46;;;;;;;5.00;3.90;;;;;;;33.19;11.29;95064.44;5021786;28;20056;-55
2021/10/29 10:53:32;;;;;;;6.10;3.78;;;;;;;33.87;10.17;95058.50;5026629;28;20048;-52
2021/10/29 10:56:21;;;;;;;8.05;3.78;;;;;;;33.14;10.41;95056.78;5018535;28;20121;-52
2021/10/29 10:59:27;;;;;;;5.43;3.65;;;;;;;32.92;10.25;95059.13;5036601;28;20049;-53
2021/10/29 11:04:50;;;;;;;4.57;4.07;;;;;;;32.47;10.87;95041.25;5052333;28;20061;-51
2021/10/29 11:10:20;;;;;;;5.78;4.00;;;;;;;32.33;10.39;95033.38;5023057;28;20041;-52
2021/10/29 11:12:47;;;;;;;6.65;5.95;;;;;;;32.29;11.10;95042.72;5036514;28;20053;-52
2021/10/29 11:15:22;;;;;;;11.93;9.48;;;;;;;32.32;10.65;95037.25;5036346;28;20046;-53
2021/10/29 11:18:28;;;;;;;6.93;4.80;;;;;;;32.27;11.16;95031.50;5035002;28;20045;-53
2021/10/29 11:21:37;;;;;;;6.03;3.90;;;;;;;32.30;11.00;95028.03;5024760;28;20060;-57
2021/10/29 11:24:10;;;;;;;4.45;3.70;;;;;;;32.48;10.13;95026.53;5035902;28;20042;-54
2021/10/29 11:26:46;;;;;;;7.13;3.70;;;;;;;33.08;10.40;95021.31;5034206;28;20041;-52
2021/10/29 11:29:15;;;;;;;4.25;3.25;;;;;;;32.12;11.19;95014.72;5035660;28;20384;-53
2021/10/29 11:31:45;;;;;;;4.72;3.50;;;;;;;32.42;10.10;95009.25;5035666;28;20045;-53
2021/10/29 11:34:15;;;;;;;5.53;2.92;;;;;;;32.06;10.33;95003.63;5035815;28;20045;-53
2021/10/29 11:36:53;;;;;;;4.30;3.22;;;;;;;32.83;10.46;95004.75;5035467;28;20056;-53
2021/10/29 11:39:25;;;;;;;4.10;3.10;;;;;;;33.09;9.90;94991.09;5034451;28;20041;-53
2021/10/29 11:41:53;;;;;;;3.70;2.67;;;;;;;32.66;10.39;95001.13;5035533;28;20049;-54
2021/10/29 11:44:22;;;;;;;4.35;2.80;;;;;;;33.10;10.17;94994.56;5035648;28;20049;-53
2021/10/29 11:46:53;;;;;;;3.95;2.83;;;;;;;33.55;9.87;94997.56;5034326;28;20359;-53
2021/10/29 11:49:25;;;;;;;6.50;3.93;;;;;;;33.22;9.43;94987.75;5035362;28;20041;-52
2021/10/29 11:51:54;;;;;;;17.58;15.75;;;;;;;33.17;10.08;94986.31;5034764;28;20041;-52
2021/10/29 11:54:27;;;;;;;4.22;3.50;;;;;;;33.39;9.36;94981.25;5035998;28;20072;-53
2021/10/29 12:07:35;;;;;;;5.05;2.28;;;;;;;32.59;9.07;94980.38;5033827;28;20041;-53
2021/10/29 12:10:08;;;;;;;6.65;2.40;;;;;;;33.36;9.08;94972.03;5035043;28;20057;-55
2021/10/29 12:12:41;;;;;;;4.28;2.15;;;;;;;33.21;8.95;94964.56;5034900;28;20053;-52
2021/10/29 12:15:13;;;;;;;3.83;2.25;;;;;;;33.42;8.84;94964.16;5035588;28;20057;-54
2021/10/29 12:18:07;;;;;;;8.32;3.90;;;;;;;33.23;9.06;94959.50;5034967;28;20360;-51
2021/10/29 12:20:38;;;;;;;5.00;2.40;;;;;;;33.53;9.34;94963.94;5034328;28;20041;-52
2021/10/29 12:23:16;;;;;;;3.58;2.50;;;;;;;32.76;9.09;94970.41;5034470;28;20440;-52
2021/10/29 12:28:47;;;;;;;2.80;2.30;;;;;;;33.70;9.24;94952.72;5034853;28;20045;-53
2021/10/29 12:31:31;;;;;;;4.75;2.58;;;;;;;33.37;9.44;94956.53;5032640;28;20041;-51
2021/10/29 13:01:53;;;;;;;3.40;1.98;;;;;;;33.63;8.52;94952.13;5023993;28;20296;-53
2021/10/29 13:04:23;;;;;;;6.68;2.63;;;;;;;33.31;8.62;94958.16;5034124;28;20049;-57
2021/10/29 13:06:52;;;;;;;6.15;2.20;;;;;;;33.39;8.29;94954.16;5033894;28;20048;-51
2021/10/29 13:09:24;;;;;;;4.90;2.33;;;;;;;32.82;8.19;94971.50;5034103;28;20048;-52
2021/10/29 13:11:55;;;;;;;7.47;2.38;;;;;;;32.79;8.58;94956.06;5034168;28;20049;-53
2021/10/29 13:14:27;;;;;;;6.82;2.30;;;;;;;33.03;8.07;94964.91;5034080;28;20053;-53
2021/10/29 13:16:55;;;;;;;3.60;1.80;;;;;;;32.76;8.37;94956.88;5029249;28;20056;-52
2021/10/29 13:50:10;;;;;;;7.82;1.80;;;;;;;33.13;7.85;94963.19;5012269;28;20056;-52
2021/10/29 14:03:13;;;;;;;2.10;1.70;;;;;;;33.37;8.01;94951.88;5033240;28;20053;-54
2021/10/29 14:30:36;;;;;;;4.13;2.60;;;;;;;33.36;8.19;94944.16;5036858;28;20049;-52
2021/10/29 14:33:07;;;;;;;4.03;1.98;;;;;;;33.20;7.92;94946.78;5036815;28;20041;-53
2021/10/29 14:35:38;;;;;;;3.15;2.33;;;;;;;33.35;8.17;94950.78;5036630;28;20053;-52
2021/10/29 14:40:42;;;;;;;3.17;1.92;;;;;;;33.00;7.73;94955.66;5036945;28;20049;-51
2021/10/29 14:43:15;;;;;;;3.67;2.13;;;;;;;33.06;7.45;94937.78;5036422;28;20379;-52
2021/10/29 14:45:54;;;;;;;4.07;1.83;;;;;;;33.08;7.87;94940.84;5036573;28;20049;-51
2021/10/29 15:07:31;;;;;;;14.05;2.85;;;;;;;32.56;7.63;94950.69;5036874;28;20052;-55
2021/10/29 15:28:48;;;;;;;7.57;2.60;;;;;;;32.82;7.83;94949.84;5035880;28;20321;-48
2021/10/29 15:32:33;;;;;;;15.45;11.98;;;;;;;32.14;7.74;94956.34;5035537;28;20041;-47
2021/10/29 15:45:35;;;;;;;7.97;4.40;;;;;;;33.21;7.72;94957.19;5035291;28;20065;-50
2021/10/29 15:48:09;;;;;;;4.53;3.72;;;;;;;33.25;7.64;94949.75;5035550;28;20049;-51
2021/10/29 15:50:36;;;;;;;7.53;3.28;;;;;;;33.26;7.37;94959.41;5032848;28;20053;-54
2021/10/29 15:53:06;;;;;;;3.67;2.47;;;;;;;33.22;7.57;94955.25;5034948;28;20049;-56
2021/10/29 15:58:15;;;;;;;4.05;2.47;;;;;;;32.98;7.30;94952.63;5029931;28;20049;-48
2021/10/29 16:17:03;;;;;;;6.13;2.25;;;;;;;33.33;7.19;94961.25;5035020;28;20045;-50
2021/10/29 16:17:25;;;;;;;7.68;6.00;;;;;;;33.13;7.29;94979.44;5024346;28;20042;-49
2021/10/29 16:19:52;;;;;;;4.28;2.72;;;;;;;33.25;6.96;94976.09;5023282;28;20389;-49
2021/10/29 16:22:30;;;;;;;5.82;2.42;;;;;;;33.20;6.89;94985.47;5026547;28;20050;-48
2021/10/29 16:25:01;;;;;;;3.47;2.35;;;;;;;33.17;7.14;94980.13;5025052;28;20494;-49
2021/10/29 16:30:27;;;;;;;6.85;3.05;;;;;;;33.00;7.29;94993.56;5022963;28;20058;-49
2021/10/29 16:35:35;;;;;;;5.00;3.13;;;;;;;32.45;7.29;94994.91;5029613;28;20057;-46